Terminal Aerodrome Forecast
Issued by NWS

Current Version | Previous Version | Text Only | Print | Product List | Glossary On
Versions: 1 2 3 4 5 6 7 8 9 10 11 12 13 14 15
000
FTAK31 PAJN 101100
TAFAPG
TAF
PAPG 101132Z 1012/1112 00000KT P6SM BKN015 OVC040
     FM101800 06005KT P6SM SCT015 BKN050
     FM110600 25004KT P6SM SCT250
      AMD LTD TO CLD VIS AND WIND 1012/1015=

USA.gov is the U.S. government's official web portal to all federal, state and local government web resources and services.